sensor_id;sensor_type;location;lat;lon;timestamp;P1;durP1;ratioP1;P2;durP2;ratioP2
25962;SDS011;13760;52.588;13.406;2024-01-30T00:01:17;16.80;;;9.30;;
25962;SDS011;13760;52.588;13.406;2024-01-30T00:03:42;16.85;;;9.38;;
25962;SDS011;13760;52.588;13.406;2024-01-30T00:06:08;18.20;;;9.35;;
25962;SDS011;13760;52.588;13.406;2024-01-30T00:08:34;16.73;;;9.30;;
25962;SDS011;13760;52.588;13.406;2024-01-30T00:10:59;17.35;;;9.52;;
25962;SDS011;13760;52.588;13.406;2024-01-30T00:13:25;19.35;;;9.32;;
25962;SDS011;13760;52.588;13.406;2024-01-30T00:15:51;18.27;;;10.23;;
25962;SDS011;13760;52.588;13.406;2024-01-30T00:18:16;19.67;;;9.38;;
25962;SDS011;13760;52.588;13.406;2024-01-30T00:20:43;19.58;;;9.13;;
25962;SDS011;13760;52.588;13.406;2024-01-30T00:23:09;19.48;;;9.73;;
25962;SDS011;13760;52.588;13.406;2024-01-30T00:25:34;20.58;;;9.85;;
25962;SDS011;13760;52.588;13.406;2024-01-30T00:28:00;18.98;;;10.02;;
25962;SDS011;13760;52.588;13.406;2024-01-30T00:30:26;18.27;;;10.00;;
25962;SDS011;13760;52.588;13.406;2024-01-30T00:32:51;21.70;;;9.80;;
25962;SDS011;13760;52.588;13.406;2024-01-30T00:35:17;20.08;;;9.43;;
25962;SDS011;13760;52.588;13.406;2024-01-30T00:37:42;16.92;;;9.13;;
25962;SDS011;13760;52.588;13.406;2024-01-30T00:40:08;20.63;;;8.98;;
25962;SDS011;13760;52.588;13.406;2024-01-30T00:42:40;16.00;;;9.70;;
25962;SDS011;13760;52.588;13.406;2024-01-30T00:45:06;17.50;;;9.15;;
25962;SDS011;13760;52.588;13.406;2024-01-30T00:47:37;18.02;;;9.55;;
25962;SDS011;13760;52.588;13.406;2024-01-30T00:50:03;16.85;;;8.80;;
25962;SDS011;13760;52.588;13.406;2024-01-30T00:52:28;17.13;;;9.07;;
25962;SDS011;13760;52.588;13.406;2024-01-30T00:54:54;17.63;;;9.27;;
25962;SDS011;13760;52.588;13.406;2024-01-30T00:57:19;18.38;;;9.52;;
25962;SDS011;13760;52.588;13.406;2024-01-30T00:59:45;19.50;;;9.27;;
25962;SDS011;13760;52.588;13.406;2024-01-30T01:02:10;17.85;;;9.23;;
25962;SDS011;13760;52.588;13.406;2024-01-30T01:04:36;18.92;;;8.95;;
25962;SDS011;13760;52.588;13.406;2024-01-30T01:07:01;15.45;;;8.65;;
25962;SDS011;13760;52.588;13.406;2024-01-30T01:09:27;16.77;;;8.85;;
25962;SDS011;13760;52.588;13.406;2024-01-30T01:11:52;14.23;;;8.50;;
25962;SDS011;13760;52.588;13.406;2024-01-30T01:14:18;17.33;;;9.02;;
25962;SDS011;13760;52.588;13.406;2024-01-30T01:16:43;17.40;;;8.85;;
25962;SDS011;13760;52.588;13.406;2024-01-30T01:19:09;20.10;;;9.13;;
25962;SDS011;13760;52.588;13.406;2024-01-30T01:21:34;18.98;;;9.40;;
25962;SDS011;13760;52.588;13.406;2024-01-30T01:24:00;16.35;;;8.50;;
25962;SDS011;13760;52.588;13.406;2024-01-30T01:26:25;15.90;;;8.50;;
25962;SDS011;13760;52.588;13.406;2024-01-30T01:28:51;18.98;;;8.95;;
25962;SDS011;13760;52.588;13.406;2024-01-30T01:31:16;15.65;;;8.32;;
25962;SDS011;13760;52.588;13.406;2024-01-30T01:33:42;16.50;;;9.45;;
25962;SDS011;13760;52.588;13.406;2024-01-30T01:36:08;17.88;;;9.48;;
25962;SDS011;13760;52.588;13.406;2024-01-30T01:38:33;16.38;;;8.77;;
25962;SDS011;13760;52.588;13.406;2024-01-30T01:40:59;15.70;;;8.70;;
25962;SDS011;13760;52.588;13.406;2024-01-30T01:43:24;18.48;;;8.93;;
25962;SDS011;13760;52.588;13.406;2024-01-30T01:45:50;18.83;;;9.05;;
25962;SDS011;13760;52.588;13.406;2024-01-30T01:48:16;21.13;;;10.85;;
25962;SDS011;13760;52.588;13.406;2024-01-30T01:50:41;23.85;;;11.35;;
25962;SDS011;13760;52.588;13.406;2024-01-30T01:53:09;20.63;;;10.48;;
25962;SDS011;13760;52.588;13.406;2024-01-30T01:55:35;16.00;;;8.68;;
25962;SDS011;13760;52.588;13.406;2024-01-30T01:58:01;16.77;;;9.05;;
25962;SDS011;13760;52.588;13.406;2024-01-30T02:00:26;19.77;;;9.00;;
25962;SDS011;13760;52.588;13.406;2024-01-30T02:02:53;16.48;;;8.48;;
25962;SDS011;13760;52.588;13.406;2024-01-30T02:05:20;17.17;;;8.82;;
25962;SDS011;13760;52.588;13.406;2024-01-30T02:07:46;15.80;;;8.88;;
25962;SDS011;13760;52.588;13.406;2024-01-30T02:10:12;19.15;;;9.43;;
25962;SDS011;13760;52.588;13.406;2024-01-30T02:12:38;19.95;;;9.77;;
25962;SDS011;13760;52.588;13.406;2024-01-30T02:15:03;18.38;;;10.07;;
25962;SDS011;13760;52.588;13.406;2024-01-30T02:17:30;18.65;;;10.25;;
25962;SDS011;13760;52.588;13.406;2024-01-30T02:19:55;19.52;;;11.23;;
25962;SDS011;13760;52.588;13.406;2024-01-30T02:22:21;20.45;;;10.95;;
25962;SDS011;13760;52.588;13.406;2024-01-30T02:24:48;20.52;;;10.05;;
25962;SDS011;13760;52.588;13.406;2024-01-30T02:27:14;16.85;;;10.05;;
25962;SDS011;13760;52.588;13.406;2024-01-30T02:29:39;16.92;;;9.80;;
25962;SDS011;13760;52.588;13.406;2024-01-30T02:32:05;21.25;;;9.88;;
25962;SDS011;13760;52.588;13.406;2024-01-30T02:34:31;21.23;;;10.13;;
25962;SDS011;13760;52.588;13.406;2024-01-30T02:36:56;16.90;;;8.95;;
25962;SDS011;13760;52.588;13.406;2024-01-30T02:39:22;16.38;;;9.32;;
25962;SDS011;13760;52.588;13.406;2024-01-30T02:41:48;15.32;;;8.32;;
25962;SDS011;13760;52.588;13.406;2024-01-30T02:44:13;19.25;;;9.52;;
25962;SDS011;13760;52.588;13.406;2024-01-30T02:46:39;20.92;;;9.40;;
25962;SDS011;13760;52.588;13.406;2024-01-30T02:49:04;18.30;;;9.00;;
25962;SDS011;13760;52.588;13.406;2024-01-30T02:51:30;18.80;;;8.82;;
25962;SDS011;13760;52.588;13.406;2024-01-30T02:53:55;17.42;;;8.80;;
25962;SDS011;13760;52.588;13.406;2024-01-30T02:56:21;15.75;;;8.52;;
25962;SDS011;13760;52.588;13.406;2024-01-30T02:58:46;17.80;;;9.20;;
25962;SDS011;13760;52.588;13.406;2024-01-30T03:01:12;17.40;;;8.77;;
25962;SDS011;13760;52.588;13.406;2024-01-30T03:03:37;17.15;;;8.68;;
25962;SDS011;13760;52.588;13.406;2024-01-30T03:06:05;20.73;;;9.27;;
25962;SDS011;13760;52.588;13.406;2024-01-30T03:08:30;16.23;;;8.73;;
25962;SDS011;13760;52.588;13.406;2024-01-30T03:10:56;17.73;;;8.88;;
25962;SDS011;13760;52.588;13.406;2024-01-30T03:13:21;18.35;;;9.20;;
25962;SDS011;13760;52.588;13.406;2024-01-30T03:15:48;18.30;;;9.98;;
25962;SDS011;13760;52.588;13.406;2024-01-30T03:18:14;16.58;;;8.77;;
25962;SDS011;13760;52.588;13.406;2024-01-30T03:20:39;17.92;;;8.82;;
25962;SDS011;13760;52.588;13.406;2024-01-30T03:23:05;17.70;;;9.30;;
25962;SDS011;13760;52.588;13.406;2024-01-30T03:25:30;14.65;;;7.88;;
25962;SDS011;13760;52.588;13.406;2024-01-30T03:27:56;16.83;;;9.02;;
25962;SDS011;13760;52.588;13.406;2024-01-30T03:30:21;15.80;;;8.18;;
25962;SDS011;13760;52.588;13.406;2024-01-30T03:32:47;19.83;;;8.38;;
25962;SDS011;13760;52.588;13.406;2024-01-30T03:35:12;19.85;;;9.60;;
25962;SDS011;13760;52.588;13.406;2024-01-30T03:37:38;17.00;;;9.18;;
25962;SDS011;13760;52.588;13.406;2024-01-30T03:40:04;20.50;;;9.65;;
25962;SDS011;13760;52.588;13.406;2024-01-30T03:42:30;17.90;;;9.13;;
25962;SDS011;13760;52.588;13.406;2024-01-30T03:44:56;21.63;;;9.85;;
25962;SDS011;13760;52.588;13.406;2024-01-30T03:47:21;15.40;;;8.82;;
25962;SDS011;13760;52.588;13.406;2024-01-30T03:49:47;16.08;;;9.32;;
25962;SDS011;13760;52.588;13.406;2024-01-30T03:52:12;16.08;;;9.02;;
25962;SDS011;13760;52.588;13.406;2024-01-30T03:54:38;17.95;;;9.40;;
25962;SDS011;13760;52.588;13.406;2024-01-30T03:57:03;17.25;;;9.23;;
25962;SDS011;13760;52.588;13.406;2024-01-30T03:59:29;16.65;;;9.25;;
25962;SDS011;13760;52.588;13.406;2024-01-30T04:01:55;16.92;;;9.35;;
25962;SDS011;13760;52.588;13.406;2024-01-30T04:04:20;18.48;;;10.05;;
25962;SDS011;13760;52.588;13.406;2024-01-30T04:06:46;18.52;;;9.55;;
25962;SDS011;13760;52.588;13.406;2024-01-30T04:09:12;16.92;;;9.82;;
25962;SDS011;13760;52.588;13.406;2024-01-30T04:11:38;18.38;;;9.07;;
25962;SDS011;13760;52.588;13.406;2024-01-30T04:14:04;15.57;;;9.18;;
25962;SDS011;13760;52.588;13.406;2024-01-30T04:16:30;17.05;;;9.57;;
25962;SDS011;13760;52.588;13.406;2024-01-30T04:18:56;16.50;;;9.88;;
25962;SDS011;13760;52.588;13.406;2024-01-30T04:21:24;20.15;;;10.15;;
25962;SDS011;13760;52.588;13.406;2024-01-30T04:23:50;17.83;;;9.95;;
25962;SDS011;13760;52.588;13.406;2024-01-30T04:26:16;19.60;;;10.30;;
25962;SDS011;13760;52.588;13.406;2024-01-30T04:28:42;16.65;;;9.35;;
25962;SDS011;13760;52.588;13.406;2024-01-30T04:31:09;16.40;;;9.07;;
25962;SDS011;13760;52.588;13.406;2024-01-30T04:33:35;18.13;;;9.93;;
25962;SDS011;13760;52.588;13.406;2024-01-30T04:36:01;20.05;;;9.70;;
25962;SDS011;13760;52.588;13.406;2024-01-30T04:38:26;16.75;;;9.20;;
25962;SDS011;13760;52.588;13.406;2024-01-30T04:40:52;16.67;;;9.27;;
25962;SDS011;13760;52.588;13.406;2024-01-30T04:43:17;17.33;;;9.90;;
25962;SDS011;13760;52.588;13.406;2024-01-30T04:45:44;19.48;;;10.45;;
25962;SDS011;13760;52.588;13.406;2024-01-30T04:48:09;17.10;;;9.82;;
25962;SDS011;13760;52.588;13.406;2024-01-30T04:50:35;17.02;;;9.27;;
25962;SDS011;13760;52.588;13.406;2024-01-30T04:53:01;18.38;;;9.73;;
25962;SDS011;13760;52.588;13.406;2024-01-30T04:55:26;19.20;;;9.95;;
25962;SDS011;13760;52.588;13.406;2024-01-30T04:57:52;19.08;;;10.02;;
25962;SDS011;13760;52.588;13.406;2024-01-30T05:00:17;21.48;;;9.98;;
25962;SDS011;13760;52.588;13.406;2024-01-30T05:02:43;17.15;;;9.50;;
25962;SDS011;13760;52.588;13.406;2024-01-30T05:05:09;16.17;;;9.35;;
25962;SDS011;13760;52.588;13.406;2024-01-30T05:07:34;23.45;;;10.45;;
25962;SDS011;13760;52.588;13.406;2024-01-30T05:10:00;16.95;;;9.25;;
25962;SDS011;13760;52.588;13.406;2024-01-30T05:12:25;17.02;;;9.77;;
25962;SDS011;13760;52.588;13.406;2024-01-30T05:14:51;18.80;;;10.38;;
25962;SDS011;13760;52.588;13.406;2024-01-30T05:17:17;17.33;;;9.60;;
25962;SDS011;13760;52.588;13.406;2024-01-30T05:19:43;22.42;;;9.85;;
25962;SDS011;13760;52.588;13.406;2024-01-30T05:22:08;17.90;;;9.55;;
25962;SDS011;13760;52.588;13.406;2024-01-30T05:24:35;18.30;;;9.57;;
25962;SDS011;13760;52.588;13.406;2024-01-30T05:27:01;19.75;;;10.25;;
25962;SDS011;13760;52.588;13.406;2024-01-30T05:29:27;22.05;;;9.90;;
25962;SDS011;13760;52.588;13.406;2024-01-30T05:31:53;15.48;;;8.75;;
25962;SDS011;13760;52.588;13.406;2024-01-30T05:34:21;22.30;;;10.38;;
25962;SDS011;13760;52.588;13.406;2024-01-30T05:36:46;17.73;;;9.98;;
25962;SDS011;13760;52.588;13.406;2024-01-30T05:39:12;18.67;;;9.18;;
25962;SDS011;13760;52.588;13.406;2024-01-30T05:41:38;16.45;;;9.70;;
25962;SDS011;13760;52.588;13.406;2024-01-30T05:44:03;17.17;;;9.93;;
25962;SDS011;13760;52.588;13.406;2024-01-30T05:46:29;17.92;;;10.00;;
25962;SDS011;13760;52.588;13.406;2024-01-30T05:48:55;18.73;;;9.88;;
25962;SDS011;13760;52.588;13.406;2024-01-30T05:51:20;14.15;;;9.35;;
25962;SDS011;13760;52.588;13.406;2024-01-30T05:53:46;18.77;;;10.30;;
25962;SDS011;13760;52.588;13.406;2024-01-30T05:56:12;16.95;;;8.85;;
25962;SDS011;13760;52.588;13.406;2024-01-30T05:58:37;18.08;;;9.27;;
25962;SDS011;13760;52.588;13.406;2024-01-30T06:01:06;20.35;;;10.25;;
25962;SDS011;13760;52.588;13.406;2024-01-30T06:03:33;15.75;;;9.18;;
25962;SDS011;13760;52.588;13.406;2024-01-30T06:05:59;18.55;;;9.88;;
25962;SDS011;13760;52.588;13.406;2024-01-30T06:08:24;16.23;;;10.00;;
25962;SDS011;13760;52.588;13.406;2024-01-30T06:10:50;17.20;;;9.98;;
25962;SDS011;13760;52.588;13.406;2024-01-30T06:13:15;19.42;;;9.95;;
25962;SDS011;13760;52.588;13.406;2024-01-30T06:15:41;16.75;;;9.93;;
25962;SDS011;13760;52.588;13.406;2024-01-30T06:18:06;18.08;;;9.50;;
25962;SDS011;13760;52.588;13.406;2024-01-30T06:20:32;14.63;;;9.25;;
25962;SDS011;13760;52.588;13.406;2024-01-30T06:22:57;21.55;;;10.73;;
25962;SDS011;13760;52.588;13.406;2024-01-30T06:25:23;17.75;;;10.02;;
25962;SDS011;13760;52.588;13.406;2024-01-30T06:27:49;20.65;;;10.18;;
25962;SDS011;13760;52.588;13.406;2024-01-30T06:30:14;18.17;;;10.00;;
25962;SDS011;13760;52.588;13.406;2024-01-30T06:32:40;19.35;;;9.30;;
25962;SDS011;13760;52.588;13.406;2024-01-30T06:35:06;16.98;;;10.02;;
25962;SDS011;13760;52.588;13.406;2024-01-30T06:37:32;17.60;;;9.52;;
25962;SDS011;13760;52.588;13.406;2024-01-30T06:39:57;22.40;;;10.90;;
25962;SDS011;13760;52.588;13.406;2024-01-30T06:42:23;20.85;;;10.52;;
25962;SDS011;13760;52.588;13.406;2024-01-30T06:44:48;20.02;;;10.15;;
25962;SDS011;13760;52.588;13.406;2024-01-30T06:47:14;20.98;;;10.52;;
25962;SDS011;13760;52.588;13.406;2024-01-30T06:49:39;17.35;;;9.85;;
25962;SDS011;13760;52.588;13.406;2024-01-30T06:52:07;21.60;;;9.80;;
25962;SDS011;13760;52.588;13.406;2024-01-30T06:54:33;20.40;;;10.65;;
25962;SDS011;13760;52.588;13.406;2024-01-30T06:56:59;17.63;;;9.55;;
25962;SDS011;13760;52.588;13.406;2024-01-30T06:59:25;16.48;;;10.20;;
25962;SDS011;13760;52.588;13.406;2024-01-30T07:01:50;17.90;;;9.95;;
25962;SDS011;13760;52.588;13.406;2024-01-30T07:04:16;19.70;;;9.93;;
25962;SDS011;13760;52.588;13.406;2024-01-30T07:06:43;18.92;;;9.93;;
25962;SDS011;13760;52.588;13.406;2024-01-30T07:09:08;21.15;;;10.63;;
25962;SDS011;13760;52.588;13.406;2024-01-30T07:11:34;18.33;;;10.15;;
25962;SDS011;13760;52.588;13.406;2024-01-30T07:13:59;14.65;;;9.27;;
25962;SDS011;13760;52.588;13.406;2024-01-30T07:16:25;17.55;;;10.50;;
25962;SDS011;13760;52.588;13.406;2024-01-30T07:18:51;21.50;;;10.27;;
25962;SDS011;13760;52.588;13.406;2024-01-30T07:21:16;18.45;;;10.38;;
25962;SDS011;13760;52.588;13.406;2024-01-30T07:23:42;19.20;;;10.38;;
25962;SDS011;13760;52.588;13.406;2024-01-30T07:26:08;21.30;;;11.20;;
25962;SDS011;13760;52.588;13.406;2024-01-30T07:28:34;20.70;;;10.68;;
25962;SDS011;13760;52.588;13.406;2024-01-30T07:31:00;22.73;;;10.93;;
25962;SDS011;13760;52.588;13.406;2024-01-30T07:33:26;19.75;;;11.13;;
25962;SDS011;13760;52.588;13.406;2024-01-30T07:35:55;20.45;;;11.52;;
25962;SDS011;13760;52.588;13.406;2024-01-30T07:38:20;22.75;;;10.57;;
25962;SDS011;13760;52.588;13.406;2024-01-30T07:40:46;22.13;;;11.55;;
25962;SDS011;13760;52.588;13.406;2024-01-30T07:43:12;23.48;;;10.85;;
25962;SDS011;13760;52.588;13.406;2024-01-30T07:45:37;23.08;;;11.45;;
25962;SDS011;13760;52.588;13.406;2024-01-30T07:48:03;20.27;;;11.38;;
25962;SDS011;13760;52.588;13.406;2024-01-30T07:50:32;21.75;;;11.25;;
25962;SDS011;13760;52.588;13.406;2024-01-30T07:52:59;22.27;;;10.60;;
25962;SDS011;13760;52.588;13.406;2024-01-30T07:55:25;21.40;;;11.40;;
25962;SDS011;13760;52.588;13.406;2024-01-30T07:57:53;22.95;;;11.88;;
25962;SDS011;13760;52.588;13.406;2024-01-30T08:00:20;24.40;;;12.38;;
25962;SDS011;13760;52.588;13.406;2024-01-30T08:02:46;22.15;;;11.30;;
25962;SDS011;13760;52.588;13.406;2024-01-30T08:05:11;24.05;;;12.25;;
25962;SDS011;13760;52.588;13.406;2024-01-30T08:07:39;22.00;;;11.60;;
25962;SDS011;13760;52.588;13.406;2024-01-30T08:10:05;23.35;;;12.10;;
25962;SDS011;13760;52.588;13.406;2024-01-30T08:12:32;25.63;;;12.20;;
25962;SDS011;13760;52.588;13.406;2024-01-30T08:15:06;19.25;;;11.35;;
25962;SDS011;13760;52.588;13.406;2024-01-30T08:17:39;20.52;;;10.93;;
25962;SDS011;13760;52.588;13.406;2024-01-30T08:20:10;20.35;;;9.90;;
25962;SDS011;13760;52.588;13.406;2024-01-30T08:22:38;28.80;;;10.82;;
25962;SDS011;13760;52.588;13.406;2024-01-30T08:25:04;22.10;;;10.73;;
25962;SDS011;13760;52.588;13.406;2024-01-30T08:27:30;19.40;;;11.10;;
25962;SDS011;13760;52.588;13.406;2024-01-30T08:29:56;27.02;;;11.48;;
25962;SDS011;13760;52.588;13.406;2024-01-30T08:32:22;21.70;;;10.40;;
25962;SDS011;13760;52.588;13.406;2024-01-30T08:34:52;18.90;;;11.07;;
25962;SDS011;13760;52.588;13.406;2024-01-30T08:37:22;17.98;;;10.07;;
25962;SDS011;13760;52.588;13.406;2024-01-30T08:39:50;18.67;;;10.33;;
25962;SDS011;13760;52.588;13.406;2024-01-30T08:42:16;25.65;;;10.68;;
25962;SDS011;13760;52.588;13.406;2024-01-30T08:44:43;20.77;;;10.52;;
25962;SDS011;13760;52.588;13.406;2024-01-30T08:47:09;19.00;;;10.40;;
25962;SDS011;13760;52.588;13.406;2024-01-30T08:49:34;21.92;;;11.13;;
25962;SDS011;13760;52.588;13.406;2024-01-30T08:52:00;18.30;;;9.98;;
25962;SDS011;13760;52.588;13.406;2024-01-30T08:54:25;22.45;;;10.02;;
25962;SDS011;13760;52.588;13.406;2024-01-30T08:56:51;16.17;;;9.85;;
25962;SDS011;13760;52.588;13.406;2024-01-30T08:59:18;22.38;;;11.13;;
25962;SDS011;13760;52.588;13.406;2024-01-30T09:01:43;21.65;;;10.45;;
25962;SDS011;13760;52.588;13.406;2024-01-30T09:04:11;17.10;;;10.20;;
25962;SDS011;13760;52.588;13.406;2024-01-30T09:06:37;18.33;;;9.93;;
25962;SDS011;13760;52.588;13.406;2024-01-30T09:09:04;22.30;;;10.35;;
25962;SDS011;13760;52.588;13.406;2024-01-30T09:11:30;17.60;;;10.27;;
25962;SDS011;13760;52.588;13.406;2024-01-30T09:13:56;19.48;;;10.18;;
25962;SDS011;13760;52.588;13.406;2024-01-30T09:16:21;22.38;;;10.05;;
25962;SDS011;13760;52.588;13.406;2024-01-30T09:18:47;21.15;;;11.10;;
25962;SDS011;13760;52.588;13.406;2024-01-30T09:21:12;16.27;;;9.52;;
25962;SDS011;13760;52.588;13.406;2024-01-30T09:23:38;19.83;;;10.30;;
25962;SDS011;13760;52.588;13.406;2024-01-30T09:26:03;17.70;;;10.10;;
25962;SDS011;13760;52.588;13.406;2024-01-30T09:28:29;19.83;;;10.63;;
25962;SDS011;13760;52.588;13.406;2024-01-30T09:30:54;16.05;;;10.45;;
25962;SDS011;13760;52.588;13.406;2024-01-30T09:33:20;21.77;;;10.00;;
25962;SDS011;13760;52.588;13.406;2024-01-30T09:35:45;22.20;;;10.13;;
25962;SDS011;13760;52.588;13.406;2024-01-30T09:38:11;28.95;;;11.13;;
25962;SDS011;13760;52.588;13.406;2024-01-30T09:40:36;18.30;;;10.30;;
25962;SDS011;13760;52.588;13.406;2024-01-30T09:43:02;20.25;;;10.48;;
25962;SDS011;13760;52.588;13.406;2024-01-30T09:45:28;20.83;;;10.82;;
25962;SDS011;13760;52.588;13.406;2024-01-30T09:48:05;17.08;;;9.88;;
25962;SDS011;13760;52.588;13.406;2024-01-30T09:50:30;18.83;;;10.13;;
25962;SDS011;13760;52.588;13.406;2024-01-30T09:52:57;21.35;;;10.85;;
25962;SDS011;13760;52.588;13.406;2024-01-30T09:55:24;21.92;;;10.05;;
25962;SDS011;13760;52.588;13.406;2024-01-30T09:57:49;21.10;;;10.05;;
25962;SDS011;13760;52.588;13.406;2024-01-30T10:00:15;16.95;;;10.07;;
25962;SDS011;13760;52.588;13.406;2024-01-30T10:02:41;19.52;;;10.00;;
25962;SDS011;13760;52.588;13.406;2024-01-30T10:05:07;18.63;;;10.07;;
25962;SDS011;13760;52.588;13.406;2024-01-30T10:07:33;21.23;;;10.32;;
25962;SDS011;13760;52.588;13.406;2024-01-30T10:09:59;17.48;;;9.80;;
25962;SDS011;13760;52.588;13.406;2024-01-30T10:12:29;17.23;;;10.25;;
25962;SDS011;13760;52.588;13.406;2024-01-30T10:14:55;21.52;;;9.90;;
25962;SDS011;13760;52.588;13.406;2024-01-30T10:17:21;19.70;;;10.02;;
25962;SDS011;13760;52.588;13.406;2024-01-30T10:19:50;17.35;;;9.38;;
25962;SDS011;13760;52.588;13.406;2024-01-30T10:22:16;19.83;;;10.20;;
25962;SDS011;13760;52.588;13.406;2024-01-30T10:24:42;17.60;;;9.20;;
25962;SDS011;13760;52.588;13.406;2024-01-30T10:27:10;18.15;;;8.73;;
25962;SDS011;13760;52.588;13.406;2024-01-30T10:29:36;18.20;;;8.80;;
25962;SDS011;13760;52.588;13.406;2024-01-30T10:32:03;18.05;;;8.88;;
25962;SDS011;13760;52.588;13.406;2024-01-30T10:34:30;14.43;;;8.50;;
25962;SDS011;13760;52.588;13.406;2024-01-30T10:37:00;15.43;;;8.38;;
25962;SDS011;13760;52.588;13.406;2024-01-30T10:39:31;14.70;;;8.27;;
25962;SDS011;13760;52.588;13.406;2024-01-30T10:42:03;17.70;;;8.70;;
25962;SDS011;13760;52.588;13.406;2024-01-30T10:44:30;14.95;;;8.23;;
25962;SDS011;13760;52.588;13.406;2024-01-30T10:47:21;14.05;;;8.40;;
25962;SDS011;13760;52.588;13.406;2024-01-30T10:49:51;17.55;;;8.15;;
25962;SDS011;13760;52.588;13.406;2024-01-30T10:52:18;14.18;;;8.35;;
25962;SDS011;13760;52.588;13.406;2024-01-30T10:54:45;13.70;;;7.72;;
25962;SDS011;13760;52.588;13.406;2024-01-30T10:57:12;18.95;;;8.77;;
25962;SDS011;13760;52.588;13.406;2024-01-30T10:59:40;13.77;;;7.85;;
25962;SDS011;13760;52.588;13.406;2024-01-30T11:02:06;12.50;;;8.20;;
25962;SDS011;13760;52.588;13.406;2024-01-30T11:04:40;16.85;;;7.65;;
25962;SDS011;13760;52.588;13.406;2024-01-30T11:12:25;13.57;;;7.95;;
25962;SDS011;13760;52.588;13.406;2024-01-30T11:15:05;15.60;;;7.25;;
25962;SDS011;13760;52.588;13.406;2024-01-30T11:20:10;15.82;;;7.72;;
25962;SDS011;13760;52.588;13.406;2024-01-30T11:22:37;13.50;;;7.35;;
25962;SDS011;13760;52.588;13.406;2024-01-30T11:25:02;18.48;;;8.18;;
25962;SDS011;13760;52.588;13.406;2024-01-30T11:27:30;17.08;;;8.07;;
25962;SDS011;13760;52.588;13.406;2024-01-30T11:30:01;15.27;;;8.10;;
25962;SDS011;13760;52.588;13.406;2024-01-30T11:32:27;17.48;;;8.35;;
25962;SDS011;13760;52.588;13.406;2024-01-30T11:34:53;14.95;;;7.22;;
25962;SDS011;13760;52.588;13.406;2024-01-30T11:37:20;17.52;;;7.90;;
25962;SDS011;13760;52.588;13.406;2024-01-30T11:39:49;14.82;;;8.00;;
25962;SDS011;13760;52.588;13.406;2024-01-30T11:42:16;14.65;;;7.75;;
25962;SDS011;13760;52.588;13.406;2024-01-30T11:44:46;15.35;;;8.02;;
25962;SDS011;13760;52.588;13.406;2024-01-30T11:47:12;14.10;;;8.20;;
25962;SDS011;13760;52.588;13.406;2024-01-30T11:49:37;15.60;;;8.25;;
25962;SDS011;13760;52.588;13.406;2024-01-30T11:52:03;13.27;;;8.35;;
25962;SDS011;13760;52.588;13.406;2024-01-30T11:54:29;14.80;;;8.45;;
25962;SDS011;13760;52.588;13.406;2024-01-30T11:56:55;13.25;;;7.90;;
25962;SDS011;13760;52.588;13.406;2024-01-30T11:59:20;14.90;;;7.80;;
25962;SDS011;13760;52.588;13.406;2024-01-30T12:01:46;17.27;;;8.50;;
25962;SDS011;13760;52.588;13.406;2024-01-30T12:04:12;17.13;;;8.73;;
25962;SDS011;13760;52.588;13.406;2024-01-30T12:06:37;14.10;;;8.40;;
25962;SDS011;13760;52.588;13.406;2024-01-30T12:09:04;11.95;;;7.88;;
25962;SDS011;13760;52.588;13.406;2024-01-30T12:11:31;15.05;;;8.20;;
25962;SDS011;13760;52.588;13.406;2024-01-30T12:13:56;12.27;;;7.95;;
25962;SDS011;13760;52.588;13.406;2024-01-30T12:16:22;16.40;;;7.50;;
25962;SDS011;13760;52.588;13.406;2024-01-30T12:18:48;15.18;;;8.15;;
25962;SDS011;13760;52.588;13.406;2024-01-30T12:21:17;14.80;;;8.57;;
25962;SDS011;13760;52.588;13.406;2024-01-30T12:23:43;16.23;;;7.97;;
25962;SDS011;13760;52.588;13.406;2024-01-30T12:26:09;16.00;;;8.02;;
25962;SDS011;13760;52.588;13.406;2024-01-30T12:28:35;15.80;;;8.23;;
25962;SDS011;13760;52.588;13.406;2024-01-30T12:31:04;14.63;;;8.65;;
25962;SDS011;13760;52.588;13.406;2024-01-30T12:33:30;15.40;;;8.05;;
25962;SDS011;13760;52.588;13.406;2024-01-30T12:35:56;14.25;;;8.38;;
25962;SDS011;13760;52.588;13.406;2024-01-30T12:38:22;17.13;;;8.15;;
25962;SDS011;13760;52.588;13.406;2024-01-30T12:40:49;16.00;;;7.95;;
25962;SDS011;13760;52.588;13.406;2024-01-30T12:43:19;21.33;;;8.50;;
25962;SDS011;13760;52.588;13.406;2024-01-30T12:45:45;14.40;;;7.95;;
25962;SDS011;13760;52.588;13.406;2024-01-30T12:48:11;17.02;;;7.82;;
25962;SDS011;13760;52.588;13.406;2024-01-30T12:50:37;15.70;;;7.90;;
25962;SDS011;13760;52.588;13.406;2024-01-30T12:53:02;13.35;;;7.43;;
25962;SDS011;13760;52.588;13.406;2024-01-30T12:55:28;17.52;;;8.43;;
25962;SDS011;13760;52.588;13.406;2024-01-30T12:57:56;13.40;;;8.40;;
25962;SDS011;13760;52.588;13.406;2024-01-30T13:00:22;14.10;;;8.35;;
25962;SDS011;13760;52.588;13.406;2024-01-30T13:02:47;13.68;;;8.57;;
25962;SDS011;13760;52.588;13.406;2024-01-30T13:05:13;18.10;;;8.50;;
25962;SDS011;13760;52.588;13.406;2024-01-30T13:07:39;17.17;;;8.52;;
25962;SDS011;13760;52.588;13.406;2024-01-30T13:10:05;17.10;;;8.60;;
25962;SDS011;13760;52.588;13.406;2024-01-30T13:12:31;12.57;;;7.50;;
25962;SDS011;13760;52.588;13.406;2024-01-30T13:15:00;16.95;;;8.70;;
25962;SDS011;13760;52.588;13.406;2024-01-30T13:17:26;14.05;;;8.57;;
25962;SDS011;13760;52.588;13.406;2024-01-30T13:19:52;13.13;;;8.77;;
25962;SDS011;13760;52.588;13.406;2024-01-30T13:22:19;15.38;;;8.57;;
25962;SDS011;13760;52.588;13.406;2024-01-30T13:24:46;18.40;;;8.43;;
25962;SDS011;13760;52.588;13.406;2024-01-30T13:27:12;17.63;;;8.65;;
25962;SDS011;13760;52.588;13.406;2024-01-30T13:29:37;15.40;;;8.90;;
25962;SDS011;13760;52.588;13.406;2024-01-30T13:32:03;14.15;;;7.95;;
25962;SDS011;13760;52.588;13.406;2024-01-30T13:34:29;14.02;;;8.40;;
25962;SDS011;13760;52.588;13.406;2024-01-30T13:36:54;18.27;;;8.15;;
25962;SDS011;13760;52.588;13.406;2024-01-30T13:39:20;14.85;;;8.50;;
25962;SDS011;13760;52.588;13.406;2024-01-30T13:41:45;15.18;;;8.55;;
25962;SDS011;13760;52.588;13.406;2024-01-30T13:44:11;15.65;;;9.05;;
25962;SDS011;13760;52.588;13.406;2024-01-30T13:46:37;14.50;;;8.52;;
25962;SDS011;13760;52.588;13.406;2024-01-30T13:49:04;16.45;;;8.00;;
25962;SDS011;13760;52.588;13.406;2024-01-30T13:51:29;17.33;;;8.70;;
25962;SDS011;13760;52.588;13.406;2024-01-30T13:53:55;15.50;;;8.70;;
25962;SDS011;13760;52.588;13.406;2024-01-30T13:56:20;21.25;;;9.00;;
25962;SDS011;13760;52.588;13.406;2024-01-30T13:58:48;15.40;;;8.57;;
25962;SDS011;13760;52.588;13.406;2024-01-30T14:01:14;15.40;;;8.10;;
25962;SDS011;13760;52.588;13.406;2024-01-30T14:03:40;15.68;;;8.75;;
25962;SDS011;13760;52.588;13.406;2024-01-30T14:06:06;18.85;;;8.30;;
25962;SDS011;13760;52.588;13.406;2024-01-30T14:08:32;17.40;;;8.60;;
25962;SDS011;13760;52.588;13.406;2024-01-30T14:10:57;16.90;;;8.15;;
25962;SDS011;13760;52.588;13.406;2024-01-30T14:13:23;15.30;;;8.55;;
25962;SDS011;13760;52.588;13.406;2024-01-30T14:15:50;15.43;;;8.68;;
25962;SDS011;13760;52.588;13.406;2024-01-30T14:18:18;15.18;;;8.52;;
25962;SDS011;13760;52.588;13.406;2024-01-30T14:20:44;14.25;;;8.88;;